Time;durP1;ratioP1;P1;durP2;ratioP2;P2;SDS_P1;SDS_P2;PMS_P1;PMS_P2;Temp;Humidity;BMP_temperature;BMP_pressure;BME280_temperature;BME280_humidity;BME280_pressure;Samples;Min_cycle;Max_cycle;Signal;HPM_P1;HPM_P2
2021/10/14 00:02:08;;;;;;;3.20;1.40;;;;;;;8.64;100.00;101563.67;115654;1184;60964;-78
2021/10/14 00:04:35;;;;;;;2.70;1.40;;;;;;;8.64;100.00;101564.20;115778;1192;61164;-78
2021/10/14 00:07:02;;;;;;;3.10;1.40;;;;;;;8.64;100.00;101560.11;115741;1191;74712;-78
2021/10/14 00:09:28;;;;;;;1.80;1.10;;;;;;;8.66;100.00;101563.14;115647;1192;69780;-78
2021/10/14 00:11:55;;;;;;;3.60;1.40;;;;;;;8.65;100.00;101560.69;115772;1191;71636;-78
2021/10/14 00:14:22;;;;;;;3.30;1.20;;;;;;;8.66;100.00;101562.73;115381;1192;59234;-79
2021/10/14 00:16:48;;;;;;;4.50;1.80;;;;;;;8.67;100.00;101566.33;114622;1192;60825;-78
2021/10/14 00:19:15;;;;;;;7.70;1.80;;;;;;;8.68;100.00;101569.43;113911;1192;74841;-79
2021/10/14 00:21:42;;;;;;;4.90;1.90;;;;;;;8.68;100.00;101567.37;114986;1192;72160;-80
2021/10/14 00:24:11;;;;;;;3.10;1.50;;;;;;;8.67;100.00;101563.39;115329;1191;59143;-78
2021/10/14 00:26:38;;;;;;;3.50;1.90;;;;;;;8.66;100.00;101557.31;115481;1192;61920;-78
2021/10/14 00:29:04;;;;;;;2.20;1.50;;;;;;;8.65;100.00;101558.10;115701;1191;61012;-78
2021/10/14 00:31:31;;;;;;;3.70;1.90;;;;;;;8.64;100.00;101550.08;115750;1192;75603;-78
2021/10/14 00:33:58;;;;;;;3.30;2.00;;;;;;;8.64;100.00;101553.56;115747;1191;70275;-78
2021/10/14 00:36:25;;;;;;;4.90;1.80;;;;;;;8.65;100.00;101552.12;115734;1191;58966;-78
2021/10/14 00:38:51;;;;;;;2.30;1.30;;;;;;;8.64;100.00;101549.67;115754;1192;63062;-78
2021/10/14 00:41:18;;;;;;;3.00;1.90;;;;;;;8.66;100.00;101544.45;115495;1192;59615;-78
2021/10/14 00:43:44;;;;;;;3.10;2.20;;;;;;;8.66;100.00;101548.27;115788;1192;60586;-78
2021/10/14 00:46:17;;;;;;;5.60;2.30;;;;;;;8.67;100.00;101548.92;115762;1191;58975;-78
2021/10/14 00:48:49;;;;;;;3.10;1.80;;;;;;;8.68;100.00;101547.04;115626;1192;72672;-78
2021/10/14 00:51:16;;;;;;;2.90;1.70;;;;;;;8.70;100.00;101540.52;115771;1192;58955;-78
2021/10/14 00:53:43;;;;;;;2.80;1.30;;;;;;;8.71;100.00;101540.95;115763;1192;61209;-79
2021/10/14 00:56:09;;;;;;;3.80;1.80;;;;;;;8.72;100.00;101538.16;115781;1192;74766;-79
2021/10/14 00:58:37;;;;;;;3.90;1.70;;;;;;;8.74;100.00;101538.05;115784;1191;72218;-78
2021/10/14 01:01:04;;;;;;;2.30;1.80;;;;;;;8.74;100.00;101535.02;115801;1191;72652;-78
2021/10/14 01:03:32;;;;;;;2.20;1.80;;;;;;;8.75;100.00;101536.29;115758;1192;61784;-78
2021/10/14 01:06:00;;;;;;;2.70;1.60;;;;;;;8.78;100.00;101533.09;115763;1192;61800;-78
2021/10/14 01:08:26;;;;;;;3.40;2.30;;;;;;;8.80;100.00;101526.17;115742;1192;74464;-79
2021/10/14 01:10:53;;;;;;;2.60;1.60;;;;;;;8.82;100.00;101531.15;115798;1192;70978;-79
2021/10/14 01:13:20;;;;;;;4.70;1.70;;;;;;;8.84;100.00;101531.65;115741;1192;73419;-79
2021/10/14 01:15:47;;;;;;;4.30;1.40;;;;;;;8.85;100.00;101525.16;115746;1192;62141;-79
2021/10/14 01:18:16;;;;;;;3.60;2.10;;;;;;;8.87;100.00;101517.22;115726;1192;60296;-80
2021/10/14 01:20:43;;;;;;;2.80;2.40;;;;;;;8.89;100.00;101515.25;115786;1191;74338;-79
2021/10/14 01:23:12;;;;;;;2.70;1.90;;;;;;;8.91;100.00;101514.77;115668;1192;71269;-79
2021/10/14 01:25:39;;;;;;;2.90;1.80;;;;;;;8.92;100.00;101512.15;115775;1192;73303;-79
2021/10/14 01:28:06;;;;;;;5.50;2.30;;;;;;;8.94;100.00;101507.72;115753;1192;59055;-80
2021/10/14 01:30:32;;;;;;;2.10;1.40;;;;;;;8.96;100.00;101505.58;115801;1191;60698;-80
2021/10/14 01:33:08;;;;;;;2.60;2.00;;;;;;;8.98;100.00;101507.20;115784;1185;75958;-80
2021/10/14 01:35:36;;;;;;;3.40;1.30;;;;;;;9.00;100.00;101500.83;115777;1192;70940;-79
2021/10/14 01:38:02;;;;;;;3.90;2.20;;;;;;;9.01;100.00;101504.97;115776;1191;71996;-79
2021/10/14 01:40:29;;;;;;;4.30;2.70;;;;;;;9.05;100.00;101504.48;115786;1192;62111;-80
2021/10/14 01:42:56;;;;;;;5.60;2.60;;;;;;;9.06;100.00;101504.34;115777;1192;60088;-80
2021/10/14 01:45:22;;;;;;;5.10;2.60;;;;;;;9.08;100.00;101498.30;115732;1192;76365;-79
2021/10/14 01:47:49;;;;;;;9.30;3.20;;;;;;;9.10;100.00;101495.30;115795;1192;70761;-79
2021/10/14 01:50:17;;;;;;;3.20;2.00;;;;;;;9.13;100.00;101496.45;115742;1192;72507;-79
2021/10/14 01:52:43;;;;;;;5.10;2.30;;;;;;;9.13;100.00;101496.12;115664;1192;63285;-77
2021/10/14 01:55:10;;;;;;;4.50;2.70;;;;;;;9.14;100.00;101501.61;115713;1192;60284;-78
2021/10/14 01:57:37;;;;;;;3.30;2.30;;;;;;;9.14;100.00;101496.15;115742;1192;74645;-79
2021/10/14 02:00:05;;;;;;;5.40;3.70;;;;;;;9.15;100.00;101496.25;115765;1192;58964;-79
2021/10/14 02:02:31;;;;;;;4.20;3.00;;;;;;;9.15;100.00;101489.14;115719;1192;71667;-79
2021/10/14 02:04:58;;;;;;;8.10;2.70;;;;;;;9.16;100.00;101494.76;115761;1192;61872;-79
2021/10/14 02:07:25;;;;;;;4.60;2.60;;;;;;;9.17;100.00;101490.95;115746;1192;59942;-79
2021/10/14 02:09:51;;;;;;;4.60;3.30;;;;;;;9.17;100.00;101493.09;115757;1192;58998;-79
2021/10/14 02:12:18;;;;;;;8.00;3.50;;;;;;;9.17;100.00;101490.78;115745;1176;59025;-79
2021/10/14 02:14:44;;;;;;;4.50;2.70;;;;;;;9.18;100.00;101493.28;115787;1192;73021;-79
2021/10/14 02:17:12;;;;;;;4.80;2.80;;;;;;;9.19;100.00;101493.02;115737;1192;58741;-79
2021/10/14 02:19:39;;;;;;;5.30;3.70;;;;;;;9.20;100.00;101486.80;115779;1192;60177;-79
2021/10/14 02:22:05;;;;;;;3.90;2.70;;;;;;;9.20;100.00;101484.13;115776;1192;75712;-79
2021/10/14 02:24:32;;;;;;;5.20;2.70;;;;;;;9.21;100.00;101487.21;115597;1192;72316;-78
2021/10/14 02:26:58;;;;;;;6.70;4.40;;;;;;;9.22;100.00;101490.98;115746;1192;72662;-78
2021/10/14 02:29:25;;;;;;;10.10;3.80;;;;;;;9.24;100.00;101488.17;115775;1191;59108;-79
2021/10/14 02:31:51;;;;;;;6.40;3.60;;;;;;;9.25;100.00;101489.10;115690;1192;58861;-79
2021/10/14 02:34:18;;;;;;;7.10;4.30;;;;;;;9.27;100.00;101491.91;115781;1192;59247;-79
2021/10/14 02:36:44;;;;;;;8.60;4.40;;;;;;;9.28;100.00;101489.92;115769;1192;59008;-79
2021/10/14 02:39:11;;;;;;;7.10;4.50;;;;;;;9.28;100.00;101492.92;115741;1192;59085;-79
2021/10/14 02:41:37;;;;;;;8.80;4.40;;;;;;;9.30;100.00;101490.61;115774;1192;58929;-79
2021/10/14 02:44:04;;;;;;;7.00;3.70;;;;;;;9.30;100.00;101490.88;115759;1192;58908;-79
2021/10/14 02:46:31;;;;;;;6.70;4.20;;;;;;;9.32;100.00;101488.25;115786;1192;74668;-79
2021/10/14 02:48:58;;;;;;;4.50;3.10;;;;;;;9.34;100.00;101486.45;115772;1192;71047;-79
2021/10/14 02:51:24;;;;;;;7.90;4.50;;;;;;;9.35;100.00;101489.75;115712;1192;58973;-79
2021/10/14 02:53:51;;;;;;;5.70;3.70;;;;;;;9.37;100.00;101492.58;115768;1192;58986;-79
2021/10/14 02:56:17;;;;;;;9.80;5.60;;;;;;;9.38;100.00;101489.65;115684;1192;60197;-79
2021/10/14 02:58:43;;;;;;;7.50;4.50;;;;;;;9.40;100.00;101491.25;115760;1192;60054;-78
2021/10/14 03:01:10;;;;;;;9.20;4.50;;;;;;;9.41;100.00;101495.35;115766;1191;58906;-79
2021/10/14 03:03:36;;;;;;;9.10;5.40;;;;;;;9.43;100.00;101495.02;115775;1191;59294;-79
2021/10/14 03:06:03;;;;;;;9.30;5.00;;;;;;;9.45;100.00;101493.96;115731;1191;58951;-79
2021/10/14 03:08:29;;;;;;;7.80;4.10;;;;;;;9.45;100.00;101497.64;115804;1192;59205;-79
2021/10/14 03:10:56;;;;;;;7.50;3.70;;;;;;;9.46;100.00;101500.38;115740;1192;58981;-79
2021/10/14 03:13:22;;;;;;;10.20;5.70;;;;;;;9.47;100.00;101493.42;115729;1192;58827;-79
2021/10/14 03:15:49;;;;;;;8.40;5.50;;;;;;;9.48;100.00;101495.22;115661;1192;58860;-79
2021/10/14 03:18:16;;;;;;;10.80;6.40;;;;;;;9.49;100.00;101493.37;114726;1192;59448;-78
2021/10/14 03:20:44;;;;;;;11.00;6.00;;;;;;;9.49;100.00;101495.48;114809;1191;61079;-77
2021/10/14 03:23:11;;;;;;;13.50;7.80;;;;;;;9.49;100.00;101490.89;114457;1192;61001;-79
2021/10/14 03:25:38;;;;;;;11.50;7.20;;;;;;;9.49;100.00;101489.64;114734;1192;69462;-79
2021/10/14 03:28:05;;;;;;;11.30;7.30;;;;;;;9.50;100.00;101484.27;114878;1192;59090;-80
2021/10/14 03:30:31;;;;;;;11.00;6.90;;;;;;;9.50;100.00;101482.48;115062;1192;60957;-79
2021/10/14 03:32:58;;;;;;;10.70;5.50;;;;;;;9.51;100.00;101484.72;115391;1192;61659;-79
2021/10/14 03:35:24;;;;;;;10.60;5.70;;;;;;;9.51;100.00;101477.45;115660;1186;59305;-80
2021/10/14 03:37:51;;;;;;;15.10;8.80;;;;;;;9.51;100.00;101479.23;115573;1192;59727;-78
2021/10/14 03:40:18;;;;;;;12.40;7.70;;;;;;;9.51;100.00;101478.84;115603;1192;72579;-78
2021/10/14 03:42:44;;;;;;;10.10;6.60;;;;;;;9.52;100.00;101471.34;115746;1192;61977;-79
2021/10/14 03:45:11;;;;;;;11.40;7.30;;;;;;;9.53;100.00;101471.09;115732;1192;61138;-79
2021/10/14 03:47:37;;;;;;;8.50;4.80;;;;;;;9.54;100.00;101470.85;115806;1192;76303;-78
2021/10/14 03:50:05;;;;;;;19.90;9.70;;;;;;;9.55;100.00;101475.47;115734;1192;72373;-78
2021/10/14 03:52:31;;;;;;;13.90;7.10;;;;;;;9.56;100.00;101474.13;115838;1191;73620;-78
2021/10/14 03:54:58;;;;;;;11.20;5.80;;;;;;;9.57;100.00;101478.78;115756;1192;60349;-78
2021/10/14 03:57:24;;;;;;;12.10;7.10;;;;;;;9.58;100.00;101479.72;115773;1192;60005;-79
2021/10/14 03:59:51;;;;;;;10.60;7.80;;;;;;;9.60;100.00;101478.73;115776;1192;73326;-78
2021/10/14 04:02:18;;;;;;;14.10;8.10;;;;;;;9.61;100.00;101478.75;115837;1191;59275;-78
2021/10/14 04:04:44;;;;;;;10.50;7.20;;;;;;;9.64;100.00;101478.17;115772;1192;72616;-78
2021/10/14 04:07:11;;;;;;;11.70;7.20;;;;;;;9.65;100.00;101484.91;115784;1192;59142;-78
2021/10/14 04:09:37;;;;;;;14.20;8.10;;;;;;;9.67;100.00;101482.92;115732;1192;60095;-79
2021/10/14 04:12:04;;;;;;;12.80;8.00;;;;;;;9.68;100.00;101483.92;115791;1192;58966;-79
2021/10/14 04:14:30;;;;;;;9.10;6.40;;;;;;;9.70;100.00;101483.91;115784;1192;71149;-79
2021/10/14 04:16:57;;;;;;;12.40;7.30;;;;;;;9.72;100.00;101483.64;115827;1192;59473;-78
2021/10/14 04:19:24;;;;;;;9.60;6.00;;;;;;;9.73;100.00;101487.82;115712;1192;62965;-78
2021/10/14 04:21:50;;;;;;;11.70;7.80;;;;;;;9.74;100.00;101483.98;115846;1192;58868;-78
2021/10/14 04:24:18;;;;;;;10.70;6.40;;;;;;;9.76;100.00;101480.65;115777;1192;76054;-78
2021/10/14 04:26:45;;;;;;;12.30;7.30;;;;;;;9.77;100.00;101482.45;115848;1192;71147;-79
2021/10/14 04:29:12;;;;;;;14.20;8.10;;;;;;;9.79;100.00;101484.23;115792;1192;73544;-80
2021/10/14 04:31:38;;;;;;;8.70;5.60;;;;;;;9.81;100.00;101486.92;115755;1192;62112;-81
2021/10/14 04:34:06;;;;;;;11.30;7.50;;;;;;;9.82;100.00;101484.02;115834;1192;61037;-82
2021/10/14 04:36:36;;;;;;;14.20;8.70;;;;;;;9.83;100.00;101483.77;115796;1192;74672;-81
2021/10/14 04:39:07;;;;;;;11.30;8.20;;;;;;;9.84;100.00;101482.00;115861;1191;69758;-80
2021/10/14 04:41:34;;;;;;;10.70;6.40;;;;;;;9.85;100.00;101485.34;115811;1192;72382;-81
2021/10/14 04:44:01;;;;;;;12.70;8.20;;;;;;;9.86;100.00;101483.95;115748;1192;62457;-80
2021/10/14 04:46:27;;;;;;;12.20;7.70;;;;;;;9.86;100.00;101484.66;115748;1192;61283;-80
2021/10/14 04:48:54;;;;;;;10.90;7.40;;;;;;;9.87;100.00;101480.20;115689;1192;75435;-80
2021/10/14 04:51:21;;;;;;;7.30;4.50;;;;;;;9.86;100.00;101484.16;115837;1192;58921;-80
2021/10/14 04:53:50;;;;;;;10.90;6.60;;;;;;;9.87;100.00;101473.98;115797;1192;72690;-80
2021/10/14 04:56:17;;;;;;;12.20;7.70;;;;;;;9.88;100.00;101474.89;115790;1192;63037;-80
2021/10/14 04:58:43;;;;;;;13.10;7.10;;;;;;;9.89;100.00;101481.91;115823;1192;58866;-80
2021/10/14 05:01:10;;;;;;;9.40;5.70;;;;;;;9.88;100.00;101475.05;115908;1191;75656;-80
2021/10/14 05:03:37;;;;;;;13.40;7.10;;;;;;;9.88;100.00;101474.02;115807;1192;71045;-80
2021/10/14 05:06:03;;;;;;;8.60;5.90;;;;;;;9.87;100.00;101471.69;115797;1192;72605;-80
2021/10/14 05:08:30;;;;;;;9.10;6.30;;;;;;;9.85;100.00;101476.77;115724;1192;61964;-81
2021/10/14 05:10:57;;;;;;;8.70;5.90;;;;;;;9.86;100.00;101474.10;115835;1192;58943;-80
2021/10/14 05:13:23;;;;;;;16.60;8.60;;;;;;;9.86;100.00;101473.88;115790;1192;73328;-80
2021/10/14 05:15:50;;;;;;;8.40;5.80;;;;;;;9.88;100.00;101477.59;115833;1191;59661;-80
2021/10/14 05:18:17;;;;;;;13.00;8.60;;;;;;;9.88;100.00;101481.30;115785;1192;72505;-80
2021/10/14 05:20:43;;;;;;;12.40;7.20;;;;;;;9.89;100.00;101484.00;115821;1192;63087;-80
2021/10/14 05:23:10;;;;;;;10.90;6.50;;;;;;;9.90;100.00;101484.77;115808;1192;60439;-81
2021/10/14 05:25:37;;;;;;;13.30;8.10;;;;;;;9.91;100.00;101484.48;115775;1192;74620;-80
2021/10/14 05:28:03;;;;;;;13.90;8.80;;;;;;;9.93;100.00;101485.92;115791;1192;71050;-80
2021/10/14 05:30:30;;;;;;;11.80;7.50;;;;;;;9.93;100.00;101486.59;115828;1191;72495;-80
2021/10/14 05:32:57;;;;;;;13.00;8.00;;;;;;;9.95;100.00;101489.10;115846;1192;61642;-74
2021/10/14 05:35:34;;;;;;;12.90;7.80;;;;;;;9.95;100.00;101485.68;115505;1186;59172;-74
2021/10/14 05:38:01;;;;;;;14.00;8.90;;;;;;;9.97;100.00;101482.48;115793;1192;74578;-74
2021/10/14 05:40:29;;;;;;;13.00;7.70;;;;;;;10.00;100.00;101483.63;115782;1192;71377;-74
2021/10/14 05:42:55;;;;;;;17.20;9.50;;;;;;;10.02;100.00;101484.88;115755;1191;72548;-73
2021/10/14 05:45:22;;;;;;;11.30;7.70;;;;;;;10.04;100.00;101484.86;115718;1192;63093;-74
2021/10/14 05:47:49;;;;;;;14.00;9.80;;;;;;;10.05;100.00;101491.83;115798;1192;60080;-74
2021/10/14 05:50:15;;;;;;;15.90;9.30;;;;;;;10.07;100.00;101488.77;115751;1192;59447;-74
2021/10/14 05:52:42;;;;;;;15.90;8.20;;;;;;;10.06;100.00;101488.98;115698;1192;71192;-74
2021/10/14 05:55:08;;;;;;;11.20;7.70;;;;;;;10.07;100.00;101494.42;115622;1192;59254;-74
2021/10/14 05:57:35;;;;;;;13.80;8.20;;;;;;;10.07;100.00;101490.39;115643;1192;60432;-74
2021/10/14 06:00:03;;;;;;;12.40;7.80;;;;;;;10.07;100.00;101490.52;115680;1192;59084;-74
2021/10/14 06:02:29;;;;;;;14.70;9.20;;;;;;;10.07;100.00;101491.91;115799;1191;75568;-74
2021/10/14 06:04:56;;;;;;;17.20;9.40;;;;;;;10.09;100.00;101489.26;115779;1192;72194;-74
2021/10/14 06:07:22;;;;;;;12.90;9.40;;;;;;;10.10;100.00;101493.91;115719;1192;72468;-75
2021/10/14 06:09:49;;;;;;;12.50;7.80;;;;;;;10.11;100.00;101496.52;115636;1192;62004;-74
2021/10/14 06:12:16;;;;;;;10.50;6.90;;;;;;;10.12;100.00;101495.70;115909;1192;58776;-74
2021/10/14 06:14:43;;;;;;;15.20;9.50;;;;;;;10.12;100.00;101496.23;115765;1192;75571;-74
2021/10/14 06:17:09;;;;;;;14.20;9.00;;;;;;;10.12;100.00;101488.83;115749;1192;59069;-74
2021/10/14 06:19:36;;;;;;;18.40;10.70;;;;;;;10.13;100.00;101486.92;115780;1192;58948;-74
2021/10/14 06:22:02;;;;;;;15.40;10.00;;;;;;;10.15;100.00;101483.48;115837;1192;58978;-74
2021/10/14 06:24:29;;;;;;;14.70;10.50;;;;;;;10.17;100.00;101475.83;115779;1192;59894;-73
2021/10/14 06:26:56;;;;;;;12.70;7.90;;;;;;;10.19;100.00;101468.56;115752;1192;74237;-74
2021/10/14 06:29:22;;;;;;;16.00;9.50;;;;;;;10.22;100.00;101467.16;115841;1192;71482;-73
2021/10/14 06:31:49;;;;;;;16.40;10.80;;;;;;;10.24;100.00;101474.52;115769;1192;71552;-74
2021/10/14 06:34:16;;;;;;;18.10;10.60;;;;;;;10.26;100.00;101478.23;115749;1192;61862;-74
2021/10/14 06:36:43;;;;;;;17.10;9.50;;;;;;;10.29;100.00;101476.18;115574;1192;61266;-73
2021/10/14 06:39:09;;;;;;;15.50;9.70;;;;;;;10.30;100.00;101479.05;115812;1192;58991;-74
2021/10/14 06:41:36;;;;;;;13.90;9.50;;;;;;;10.33;100.00;101477.16;115774;1192;61242;-74
2021/10/14 06:44:07;;;;;;;15.40;8.70;;;;;;;10.36;100.00;101479.37;115827;1191;59459;-74
2021/10/14 06:46:36;;;;;;;17.40;9.20;;;;;;;10.38;100.00;101472.03;115717;1192;61708;-74
2021/10/14 06:49:03;;;;;;;15.30;9.70;;;;;;;10.42;100.00;101472.80;115765;1192;61338;-74
2021/10/14 06:51:30;;;;;;;12.50;8.00;;;;;;;10.45;100.00;101472.14;115772;1192;74545;-74
2021/10/14 06:53:57;;;;;;;13.20;8.90;;;;;;;10.47;100.00;101471.19;115800;1192;71352;-74
2021/10/14 06:56:23;;;;;;;15.90;9.90;;;;;;;10.52;100.00;101471.42;115739;1192;73707;-75
2021/10/14 06:58:50;;;;;;;15.60;9.10;;;;;;;10.57;100.00;101476.33;115495;1192;61952;-75
2021/10/14 07:01:18;;;;;;;16.70;10.60;;;;;;;10.61;100.00;101480.35;115521;1192;60072;-76
2021/10/14 07:03:46;;;;;;;15.40;7.70;;;;;;;10.66;100.00;101479.84;115683;1191;76003;-75
2021/10/14 07:06:12;;;;;;;14.60;9.60;;;;;;;10.69;100.00;101480.34;115627;1192;71276;-75
2021/10/14 07:08:39;;;;;;;12.00;6.50;;;;;;;10.70;100.00;101480.36;115283;1192;73931;-75
2021/10/14 07:11:05;;;;;;;12.60;8.80;;;;;;;10.73;100.00;101471.78;115828;1192;59036;-75
2021/10/14 07:13:33;;;;;;;10.00;6.20;;;;;;;10.76;100.00;101474.30;115714;1192;60121;-75
2021/10/14 07:15:59;;;;;;;13.00;8.70;;;;;;;10.79;100.00;101473.61;115666;1192;75763;-75
2021/10/14 07:18:26;;;;;;;10.50;6.40;;;;;;;10.82;100.00;101470.98;115687;1192;59125;-75
2021/10/14 07:20:52;;;;;;;12.80;8.00;;;;;;;10.86;100.00;101469.17;115781;1192;73719;-74
2021/10/14 07:23:19;;;;;;;12.40;8.00;;;;;;;10.91;100.00;101466.48;115805;1192;60938;-75
2021/10/14 07:25:46;;;;;;;12.50;8.20;;;;;;;10.97;100.00;101467.30;115846;1192;61679;-75
2021/10/14 07:28:13;;;;;;;12.50;8.70;;;;;;;11.01;100.00;101470.25;115728;1192;74615;-75
2021/10/14 07:30:41;;;;;;;11.30;7.00;;;;;;;11.04;100.00;101472.48;115886;1191;59055;-75
2021/10/14 07:33:08;;;;;;;12.20;7.70;;;;;;;11.08;100.00;101472.56;115788;1192;74873;-75
2021/10/14 07:35:38;;;;;;;8.00;5.00;;;;;;;11.13;99.92;101475.39;115822;1192;60889;-75
2021/10/14 07:38:11;;;;;;;9.40;6.40;;;;;;;11.16;99.48;101479.17;115769;1192;60001;-75
2021/10/14 07:40:41;;;;;;;7.40;5.00;;;;;;;11.21;99.56;101478.44;115790;1192;74347;-75
2021/10/14 07:43:11;;;;;;;6.80;5.20;;;;;;;11.25;99.28;101483.35;115683;1192;71145;-74
2021/10/14 07:45:39;;;;;;;9.00;5.70;;;;;;;11.27;98.85;101481.94;115739;1192;72486;-74
2021/10/14 07:48:07;;;;;;;8.60;5.80;;;;;;;11.28;98.44;101479.31;115814;1192;61940;-74
2021/10/14 07:50:36;;;;;;;10.10;6.20;;;;;;;11.30;98.51;101476.46;115769;1192;59961;-74
2021/10/14 07:53:14;;;;;;;7.00;4.70;;;;;;;11.32;98.25;101481.80;115878;1191;72792;-74
2021/10/14 07:55:43;;;;;;;10.40;6.60;;;;;;;11.34;98.42;101483.20;115791;1192;70960;-74
2021/10/14 07:58:10;;;;;;;9.70;5.20;;;;;;;11.35;98.14;101482.01;115702;1192;72677;-75
2021/10/14 08:00:38;;;;;;;9.40;6.20;;;;;;;11.37;97.81;101477.84;115787;1192;61153;-75
2021/10/14 08:03:06;;;;;;;8.40;6.20;;;;;;;11.40;98.04;101482.31;115796;1191;60946;-74
2021/10/14 08:05:33;;;;;;;7.40;5.00;;;;;;;11.40;97.73;101480.17;115791;1184;74554;-74
2021/10/14 08:08:00;;;;;;;9.30;5.50;;;;;;;11.42;97.71;101479.77;115518;1192;71147;-73
2021/10/14 08:10:28;;;;;;;7.90;4.60;;;;;;;11.44;97.80;101478.15;115814;1192;74067;-74
2021/10/14 08:12:54;;;;;;;7.10;4.50;;;;;;;11.48;97.34;101480.32;115502;1193;62887;-74
2021/10/14 08:15:21;;;;;;;7.60;4.10;;;;;;;11.51;97.34;101481.20;115840;1192;59319;-75
2021/10/14 08:17:48;;;;;;;6.00;3.90;;;;;;;11.53;97.24;101480.57;115771;1192;75734;-74
2021/10/14 08:20:15;;;;;;;7.00;3.70;;;;;;;11.59;97.26;101475.89;115765;1192;71099;-73
2021/10/14 08:22:41;;;;;;;8.70;4.40;;;;;;;11.66;97.18;101476.81;115802;1192;73587;-74
2021/10/14 08:25:14;;;;;;;6.40;4.00;;;;;;;11.71;96.79;101470.71;115767;1192;63238;-73
2021/10/14 08:27:42;;;;;;;5.30;3.40;;;;;;;11.80;96.27;101473.29;115827;1192;61337;-74
2021/10/14 08:30:11;;;;;;;4.20;2.80;;;;;;;11.85;95.11;101475.11;115870;1192;74649;-73
2021/10/14 08:32:37;;;;;;;3.80;2.20;;;;;;;11.89;94.72;101476.10;115851;1192;72118;-74
2021/10/14 08:35:04;;;;;;;3.30;2.60;;;;;;;11.91;94.60;101480.68;115752;1192;72701;-74
2021/10/14 08:37:33;;;;;;;4.60;2.70;;;;;;;11.93;94.33;101479.09;115823;1192;63333;-74
2021/10/14 08:39:59;;;;;;;4.10;2.70;;;;;;;11.93;93.96;101480.15;115746;1192;58991;-75
2021/10/14 08:42:26;;;;;;;3.60;2.80;;;;;;;11.94;94.00;101481.77;115846;1192;58993;-75
2021/10/14 08:44:53;;;;;;;3.60;2.60;;;;;;;11.93;93.96;101485.08;115736;1190;59549;-74
2021/10/14 08:47:20;;;;;;;5.00;2.90;;;;;;;11.92;94.23;101486.95;115836;1192;72899;-75
2021/10/14 08:49:48;;;;;;;5.80;3.40;;;;;;;11.92;94.27;101481.17;115800;1192;62907;-74
2021/10/14 08:52:16;;;;;;;5.20;3.40;;;;;;;11.93;94.52;101478.72;115858;1191;61243;-75
2021/10/14 08:54:43;;;;;;;5.10;3.30;;;;;;;11.94;94.28;101477.19;115690;1193;76372;-75
2021/10/14 08:57:09;;;;;;;5.40;3.60;;;;;;;11.92;94.17;101482.94;115789;1191;71048;-74
2021/10/14 08:59:37;;;;;;;6.40;2.70;;;;;;;11.92;94.45;101483.10;115822;1191;73647;-75
2021/10/14 09:02:15;;;;;;;4.10;2.80;;;;;;;11.92;94.34;101482.04;115855;1192;62739;-73
2021/10/14 09:04:49;;;;;;;5.60;3.50;;;;;;;11.92;94.59;101479.75;115766;1192;60590;-73
2021/10/14 09:07:17;;;;;;;6.50;3.70;;;;;;;11.89;94.09;101484.45;115897;1192;74652;-74
2021/10/14 09:09:44;;;;;;;5.70;3.60;;;;;;;11.83;93.97;101491.98;115800;1192;70186;-73
2021/10/14 09:12:13;;;;;;;6.60;3.30;;;;;;;11.80;94.40;101484.64;115826;1192;74328;-74
2021/10/14 09:15:02;;;;;;;6.00;3.80;;;;;;;11.84;94.97;101481.06;115651;1192;61913;-75
2021/10/14 09:17:37;;;;;;;5.40;3.70;;;;;;;11.90;94.68;101480.11;115587;1192;61208;-74
2021/10/14 09:20:34;;;;;;;8.00;4.10;;;;;;;11.95;94.23;101483.41;115621;1192;75912;-74
2021/10/14 09:23:16;;;;;;;6.80;3.90;;;;;;;11.96;93.85;101482.08;115796;1192;70475;-74
2021/10/14 09:25:48;;;;;;;4.70;3.50;;;;;;;11.97;94.11;101481.61;115835;1192;72746;-75
2021/10/14 09:28:21;;;;;;;5.80;2.50;;;;;;;11.98;94.03;101485.27;115711;1192;62864;-75
2021/10/14 09:30:54;;;;;;;3.90;2.90;;;;;;;11.92;93.66;101480.55;115817;1192;61010;-75
2021/10/14 09:33:30;;;;;;;3.90;3.00;;;;;;;11.89;93.88;101484.45;115895;1192;74286;-75
2021/10/14 09:36:13;;;;;;;4.10;2.50;;;;;;;11.84;93.86;101481.77;115855;1192;71611;-76
2021/10/14 09:38:41;;;;;;;4.40;2.80;;;;;;;11.80;93.94;101483.79;115928;1192;73628;-74
2021/10/14 09:41:10;;;;;;;4.70;2.80;;;;;;;11.74;93.85;101479.13;115774;1192;61630;-74
2021/10/14 09:43:37;;;;;;;3.10;2.00;;;;;;;11.74;94.44;101481.91;115797;1192;60694;-74
2021/10/14 09:46:05;;;;;;;2.40;1.40;;;;;;;11.73;94.27;101486.33;115813;1192;74544;-74
2021/10/14 09:48:35;;;;;;;3.10;2.20;;;;;;;11.72;94.21;101487.59;115762;1192;71988;-74
2021/10/14 09:51:02;;;;;;;2.70;1.90;;;;;;;11.72;94.44;101488.35;115811;1192;73906;-74
2021/10/14 09:53:31;;;;;;;2.80;1.80;;;;;;;11.69;94.51;101489.15;115476;1193;61940;-74
2021/10/14 09:55:57;;;;;;;2.40;1.40;;;;;;;11.68;94.86;101486.31;115756;1192;59766;-74
2021/10/14 09:58:24;;;;;;;2.30;1.50;;;;;;;11.67;94.82;101488.46;115747;1192;59277;-74
2021/10/14 10:00:52;;;;;;;2.40;1.30;;;;;;;11.70;94.63;101485.73;115657;1192;70977;-74
2021/10/14 10:03:21;;;;;;;1.50;0.90;;;;;;;11.74;94.98;101487.92;115844;1192;73903;-74
2021/10/14 10:05:50;;;;;;;2.60;1.30;;;;;;;11.79;94.75;101485.88;115832;1192;62105;-74
2021/10/14 10:08:32;;;;;;;2.40;1.60;;;;;;;11.80;94.83;101483.79;115859;1192;61379;-74
2021/10/14 10:11:10;;;;;;;2.10;1.20;;;;;;;11.81;94.60;101482.61;115819;1192;75982;-74
2021/10/14 10:13:44;;;;;;;1.50;1.10;;;;;;;11.79;94.69;101484.35;115859;1192;72060;-74
2021/10/14 10:16:21;;;;;;;1.60;0.80;;;;;;;11.77;94.51;101488.13;115820;1192;72387;-74
2021/10/14 10:18:53;;;;;;;2.40;1.10;;;;;;;11.77;95.01;101487.80;115793;1192;62698;-73
2021/10/14 10:21:28;;;;;;;1.60;1.00;;;;;;;11.80;94.82;101486.98;115855;1192;60599;-74
2021/10/14 10:23:56;;;;;;;1.90;1.00;;;;;;;11.86;94.59;101483.83;115849;1192;77238;-73
2021/10/14 10:26:35;;;;;;;2.00;1.30;;;;;;;11.98;94.81;101479.98;115804;1192;72382;-73
2021/10/14 10:29:16;;;;;;;3.80;1.60;;;;;;;12.11;94.09;101481.36;115860;1192;73582;-74
2021/10/14 10:31:46;;;;;;;1.80;1.20;;;;;;;12.26;93.31;101481.00;115860;1192;62970;-74
2021/10/14 10:34:43;;;;;;;2.20;1.40;;;;;;;12.39;92.34;101477.10;115619;1192;60293;-73
2021/10/14 10:37:27;;;;;;;3.90;2.00;;;;;;;12.60;91.64;101476.98;115828;1192;75593;-74
2021/10/14 10:40:15;;;;;;;4.50;2.70;;;;;;;12.72;90.52;101478.45;115821;1192;71462;-74
2021/10/14 10:42:46;;;;;;;3.80;2.20;;;;;;;12.81;90.15;101477.27;115831;1191;72508;-74
2021/10/14 10:45:22;;;;;;;3.30;2.30;;;;;;;12.83;89.18;101466.94;115822;1192;62476;-75
2021/10/14 10:47:56;;;;;;;6.10;3.50;;;;;;;12.85;89.03;101473.61;115796;1192;60408;-75
2021/10/14 10:50:27;;;;;;;4.40;2.60;;;;;;;12.89;88.57;101467.18;115804;1191;75735;-75
2021/10/14 10:53:09;;;;;;;5.20;3.00;;;;;;;12.95;88.68;101463.98;115836;1192;71115;-74
2021/10/14 10:55:51;;;;;;;4.90;2.50;;;;;;;13.10;88.15;101457.89;115743;1176;72543;-75
2021/10/14 10:58:46;;;;;;;5.80;3.90;;;;;;;13.26;87.42;101447.73;115791;1192;63059;-74
2021/10/14 11:01:17;;;;;;;5.10;3.20;;;;;;;13.41;86.73;101441.83;115665;1192;60012;-74
2021/10/14 11:04:06;;;;;;;5.20;3.20;;;;;;;13.51;85.04;101443.23;115674;1192;74601;-74
2021/10/14 11:06:34;;;;;;;7.10;4.20;;;;;;;13.54;85.13;101436.08;115727;1192;72630;-74
2021/10/14 11:09:05;;;;;;;5.70;3.70;;;;;;;13.59;84.95;101435.14;115483;1192;72618;-73
2021/10/14 11:11:33;;;;;;;5.90;3.90;;;;;;;13.60;84.35;101435.57;114915;1192;63372;-73
2021/10/14 11:14:00;;;;;;;6.10;3.80;;;;;;;13.69;84.16;101426.91;114834;1186;59179;-73
2021/10/14 11:16:29;;;;;;;7.30;4.60;;;;;;;13.72;83.28;101423.70;114795;1192;74805;-73
2021/10/14 11:18:56;;;;;;;5.00;3.50;;;;;;;13.71;83.20;101418.83;114822;1191;71744;-73